Time;durP1;ratioP1;P1;durP2;ratioP2;P2;SDS_P1;SDS_P2;PMS_P1;PMS_P2;Temp;Humidity;BMP_temperature;BMP_pressure;BME280_temperature;BME280_humidity;BME280_pressure;Samples;Min_cycle;Max_cycle;Signal;HPM_P1;HPM_P2
2021/11/25 00:00:44;;;;;;;7.20;2.87;;;;;;;10.45;53.26;100333.72;5070555;28;20083;-58
2021/11/25 00:03:11;;;;;;;6.80;2.73;;;;;;;10.35;53.25;100308.63;5069185;28;20476;-59
2021/11/25 00:05:39;;;;;;;7.87;2.50;;;;;;;10.42;53.21;100320.31;5069568;28;20086;-59
2021/11/25 00:08:06;;;;;;;7.77;2.37;;;;;;;10.50;53.31;100316.94;5069638;28;20102;-60
2021/11/25 00:10:34;;;;;;;8.00;2.67;;;;;;;10.48;53.22;100319.19;5072584;28;20080;-66
2021/11/25 00:13:01;;;;;;;5.57;2.50;;;;;;;10.55;52.99;100330.03;5068145;28;20128;-66
2021/11/25 00:15:28;;;;;;;12.77;2.93;;;;;;;10.29;53.02;100282.72;5069263;28;20080;-67
2021/11/25 00:17:55;;;;;;;7.97;3.03;;;;;;;10.53;53.24;100319.19;5068949;28;20141;-63
2021/11/25 00:20:22;;;;;;;5.50;2.63;;;;;;;10.56;53.09;100314.94;5070145;28;20091;-64
2021/11/25 00:22:49;;;;;;;7.97;2.77;;;;;;;10.58;53.24;100309.94;5053409;28;20469;-64
2021/11/25 00:25:17;;;;;;;5.43;2.50;;;;;;;10.61;53.20;100307.41;5071544;28;20075;-65
2021/11/25 00:27:44;;;;;;;16.30;2.93;;;;;;;10.57;53.10;100311.06;5074831;28;20548;-61
2021/11/25 00:30:11;;;;;;;8.97;3.23;;;;;;;10.60;53.13;100310.50;5073058;28;20457;-61
2021/11/25 00:32:40;;;;;;;13.73;3.70;;;;;;;10.61;52.89;100307.41;5083275;28;20549;-62
2021/11/25 00:35:09;;;;;;;12.70;3.10;;;;;;;10.62;52.86;100308.22;5075410;28;20080;-64
2021/11/25 00:37:37;;;;;;;12.73;5.03;;;;;;;10.62;52.98;100300.69;5074007;28;20124;-62
2021/11/25 00:40:10;;;;;;;9.13;2.83;;;;;;;10.57;52.88;100295.13;5074308;28;20388;-64
2021/11/25 00:42:38;;;;;;;7.07;3.03;;;;;;;10.48;53.14;100268.09;5075569;28;20052;-63
2021/11/25 00:45:06;;;;;;;16.70;3.57;;;;;;;10.57;52.54;100300.72;5072863;28;20087;-63
2021/11/25 00:47:33;;;;;;;10.70;3.37;;;;;;;10.58;52.92;100291.22;5073718;28;20095;-63
2021/11/25 00:50:01;;;;;;;8.57;4.10;;;;;;;10.55;53.06;100289.00;5074765;28;20127;-65
2021/11/25 00:52:28;;;;;;;8.07;3.00;;;;;;;10.60;52.83;100293.72;5074519;28;20094;-61
2021/11/25 00:54:55;;;;;;;7.10;3.03;;;;;;;10.57;53.07;100295.13;5074024;28;20076;-61
2021/11/25 00:57:22;;;;;;;8.83;3.43;;;;;;;10.51;52.74;100301.88;5073116;28;20049;-61
2021/11/25 00:59:51;;;;;;;9.73;3.17;;;;;;;10.43;53.24;100294.09;5074273;28;20044;-61
2021/11/25 01:02:19;;;;;;;10.23;3.67;;;;;;;10.27;53.57;100292.47;5067628;28;20087;-61
2021/11/25 01:04:47;;;;;;;13.23;3.50;;;;;;;10.12;53.80;100277.44;5075185;28;20047;-61
2021/11/25 01:07:14;;;;;;;12.23;3.77;;;;;;;10.06;53.86;100278.56;5073587;28;20492;-61
2021/11/25 01:09:41;;;;;;;9.83;3.43;;;;;;;10.06;54.02;100275.78;5076084;28;20040;-62
2021/11/25 01:12:09;;;;;;;9.63;2.97;;;;;;;10.05;53.93;100279.69;5072345;28;20481;-62
2021/11/25 01:14:38;;;;;;;7.03;3.13;;;;;;;10.02;53.95;100283.06;5073166;28;20546;-61
2021/11/25 01:17:05;;;;;;;6.73;3.40;;;;;;;10.01;54.02;100278.56;5073254;28;20128;-61
2021/11/25 01:19:39;;;;;;;8.80;2.97;;;;;;;9.99;53.93;100278.03;5073293;28;20076;-62
2021/11/25 01:22:05;;;;;;;9.17;3.07;;;;;;;9.97;54.12;100274.69;5072759;28;20087;-62
2021/11/25 01:24:37;;;;;;;8.30;3.27;;;;;;;9.98;54.18;100276.34;5070064;28;20040;-60
2021/11/25 01:27:04;;;;;;;11.03;3.50;;;;;;;9.92;54.09;100263.56;5077086;28;20072;-59
2021/11/25 01:29:31;;;;;;;13.03;3.30;;;;;;;9.94;54.15;100267.72;5072730;28;20437;-59
2021/11/25 01:31:58;;;;;;;8.50;3.27;;;;;;;9.92;54.03;100263.56;5072447;28;20040;-63
2021/11/25 01:34:25;;;;;;;10.03;3.87;;;;;;;9.90;54.11;100254.63;5071399;28;20084;-60
2021/11/25 01:36:52;;;;;;;9.30;2.93;;;;;;;9.80;54.26;100238.75;5075172;28;20128;-61
2021/11/25 01:39:19;;;;;;;13.27;3.60;;;;;;;9.86;54.28;100245.16;5072691;28;20076;-60
2021/11/25 01:41:47;;;;;;;15.43;3.90;;;;;;;9.79;54.43;100244.63;5072186;28;20102;-62
2021/11/25 01:44:15;;;;;;;11.03;4.27;;;;;;;9.75;54.62;100251.88;5072373;28;20106;-62
2021/11/25 01:46:43;;;;;;;11.57;3.77;;;;;;;9.69;54.50;100232.38;5071765;28;20452;-62
2021/11/25 01:49:10;;;;;;;12.30;3.23;;;;;;;9.73;54.58;100246.56;5072300;28;20072;-62
2021/11/25 01:51:37;;;;;;;9.33;3.70;;;;;;;9.62;54.79;100229.03;5071493;28;20124;-63
2021/11/25 01:54:04;;;;;;;7.33;3.13;;;;;;;9.60;54.92;100220.09;5087416;28;20076;-63
2021/11/25 01:56:31;;;;;;;9.47;3.20;;;;;;;9.65;55.06;100236.84;5069998;28;20044;-62
2021/11/25 01:58:58;;;;;;;13.33;3.20;;;;;;;9.65;55.06;100233.22;5070473;28;20059;-62
2021/11/25 02:01:33;;;;;;;14.90;4.33;;;;;;;9.65;54.97;100222.91;5069722;28;20062;-62
2021/11/25 02:04:03;;;;;;;7.40;2.77;;;;;;;9.52;55.02;100201.19;5071870;28;20419;-64
2021/11/25 02:06:31;;;;;;;;;;;;;;;9.55;54.49;100208.97;5077135;28;20530;-61
2021/11/25 02:08:59;;;;;;;9.70;3.00;;;;;;;9.49;54.88;100193.38;5072173;28;19963;-63
2021/11/25 02:11:27;;;;;;;12.43;3.67;;;;;;;9.48;54.98;100195.34;5071339;28;20123;-64
2021/11/25 02:13:54;;;;;;;8.00;3.00;;;;;;;9.54;55.16;100210.13;5072060;28;20466;-64
2021/11/25 02:16:22;;;;;;;8.57;2.97;;;;;;;9.57;55.06;100206.75;5066135;28;20490;-65
2021/11/25 02:18:49;;;;;;;10.73;2.90;;;;;;;9.59;55.35;100207.28;5071931;28;20098;-63
2021/11/25 02:21:17;;;;;;;8.57;2.93;;;;;;;9.51;55.21;100182.78;5064776;28;20150;-65
2021/11/25 02:23:44;;;;;;;7.97;3.03;;;;;;;9.66;55.21;100202.25;5076334;28;20078;-65
2021/11/25 02:26:11;;;;;;;7.47;3.20;;;;;;;9.64;55.28;100192.50;5072143;28;20469;-64
2021/11/25 02:28:39;;;;;;;10.97;3.93;;;;;;;9.59;55.22;100182.22;5068647;28;20127;-64
2021/11/25 02:31:07;;;;;;;8.80;3.80;;;;;;;9.68;55.25;100191.66;5072166;28;20135;-64
2021/11/25 02:33:38;;;;;;;17.00;3.20;;;;;;;9.76;55.17;100189.41;5072185;28;20143;-60
2021/11/25 02:36:06;;;;;;;16.03;4.57;;;;;;;9.86;55.18;100184.63;5070961;28;20127;-61
2021/11/25 02:38:34;;;;;;;14.53;3.80;;;;;;;9.89;55.08;100177.66;5071142;28;20313;-60
2021/11/25 02:41:01;;;;;;;9.43;3.63;;;;;;;9.86;55.05;100178.22;5069158;28;20080;-60
2021/11/25 02:43:30;;;;;;;7.13;2.40;;;;;;;9.85;55.15;100166.22;5063653;28;20502;-61
2021/11/25 02:46:03;;;;;;;11.13;3.17;;;;;;;9.83;55.10;100156.47;5071330;28;20045;-62
2021/11/25 02:48:42;;;;;;;8.07;3.10;;;;;;;9.87;54.98;100157.56;5070592;28;20091;-60
2021/11/25 02:51:13;;;;;;;6.83;3.00;;;;;;;9.87;55.12;100140.84;5076909;28;20111;-63
2021/11/25 02:53:40;;;;;;;7.20;3.47;;;;;;;9.85;54.96;100143.09;5069747;28;20508;-61
2021/11/25 02:56:13;;;;;;;6.77;2.87;;;;;;;9.85;55.12;100143.09;5071195;28;20440;-60
2021/11/25 02:58:45;;;;;;;8.60;3.00;;;;;;;9.83;55.17;100139.75;5069814;28;20107;-64
2021/11/25 03:01:19;;;;;;;8.33;2.83;;;;;;;9.77;55.03;100119.41;5070357;28;20499;-61
2021/11/25 03:03:47;;;;;;;7.10;2.37;;;;;;;9.81;55.43;100123.31;5072970;28;20055;-62
2021/11/25 03:06:15;;;;;;;11.77;3.37;;;;;;;9.78;55.31;100128.59;5072113;28;20080;-61
2021/11/25 03:08:42;;;;;;;12.40;2.93;;;;;;;9.75;55.63;100129.19;5070968;28;20131;-61
2021/11/25 03:11:12;;;;;;;4.90;2.53;;;;;;;9.62;55.67;100108.31;5069838;28;20147;-62
2021/11/25 03:13:43;;;;;;;3.67;2.72;;;;;;;9.67;55.44;100103.53;5069959;28;20041;-62
2021/11/25 03:16:12;;;;;;;4.87;2.63;;;;;;;9.66;55.44;100107.47;5071835;28;20504;-64
2021/11/25 03:18:41;;;;;;;9.03;3.47;;;;;;;9.52;55.91;100097.22;5071701;28;20041;-65
2021/11/25 03:21:08;;;;;;;12.07;3.70;;;;;;;9.37;56.21;100103.69;5070441;28;20140;-65
2021/11/25 03:23:37;;;;;;;6.37;3.43;;;;;;;9.33;56.25;100108.13;5071172;28;20051;-65
2021/11/25 03:26:07;;;;;;;6.87;4.33;;;;;;;9.34;56.28;100110.66;5067576;28;20076;-64
2021/11/25 03:28:37;;;;;;;12.15;4.57;;;;;;;9.40;55.98;100114.25;5065430;28;20132;-65
2021/11/25 03:31:04;;;;;;;15.13;3.90;;;;;;;9.45;56.05;100119.81;5070485;28;20127;-65
2021/11/25 03:33:33;;;;;;;8.80;4.40;;;;;;;9.40;55.83;100100.31;5071071;28;20052;-65
2021/11/25 03:36:04;;;;;;;9.37;4.50;;;;;;;9.51;55.73;100099.19;5071789;28;20079;-65
2021/11/25 03:38:31;;;;;;;10.90;3.50;;;;;;;9.65;55.41;100116.94;5070027;28;20123;-65
2021/11/25 03:40:58;;;;;;;10.40;3.17;;;;;;;9.58;55.29;100098.88;5068972;28;20175;-65
2021/11/25 03:43:26;;;;;;;11.43;5.03;;;;;;;9.64;55.20;100098.56;5069965;28;20074;-63
2021/11/25 03:45:53;;;;;;;11.87;4.07;;;;;;;9.58;55.29;100088.56;5063088;28;20568;-64
2021/11/25 03:48:23;;;;;;;6.73;3.70;;;;;;;9.52;55.42;100088.84;5070913;28;20048;-61
2021/11/25 03:50:51;;;;;;;10.52;4.47;;;;;;;9.43;55.41;100074.66;5070270;28;20095;-62
2021/11/25 03:53:18;;;;;;;10.00;3.70;;;;;;;9.48;55.66;100083.00;5084876;28;20580;-62
2021/11/25 03:55:45;;;;;;;6.40;3.67;;;;;;;9.47;55.69;100082.19;5070976;28;20443;-63
2021/11/25 03:58:11;;;;;;;7.03;3.80;;;;;;;9.43;55.83;100077.44;5071516;28;20040;-62
2021/11/25 04:00:38;;;;;;;14.90;3.83;;;;;;;9.33;55.82;100063.56;5074514;28;20508;-62
2021/11/25 04:03:06;;;;;;;7.00;3.30;;;;;;;9.25;56.31;100067.75;5071930;28;20050;-61
2021/11/25 04:05:33;;;;;;;10.37;3.50;;;;;;;9.07;56.88;100055.28;5073629;28;20071;-61
2021/11/25 04:08:00;;;;;;;8.27;3.47;;;;;;;9.06;57.26;100056.41;5075267;28;20041;-62
2021/11/25 04:10:27;;;;;;;10.73;3.70;;;;;;;9.09;57.09;100064.19;5073594;28;20143;-62
2021/11/25 04:12:54;;;;;;;8.93;3.33;;;;;;;9.19;57.14;100064.16;5074489;28;20076;-61
2021/11/25 04:15:21;;;;;;;10.27;3.73;;;;;;;9.29;57.13;100057.72;5074125;28;20072;-61
2021/11/25 04:17:49;;;;;;;7.33;4.03;;;;;;;9.38;56.69;100052.41;5072000;28;20135;-61
2021/11/25 04:20:16;;;;;;;15.40;4.87;;;;;;;9.48;56.41;100055.97;5066824;28;20131;-63
2021/11/25 04:22:43;;;;;;;9.30;2.93;;;;;;;9.50;56.68;100050.09;5074435;28;20098;-63
2021/11/25 04:25:10;;;;;;;5.53;2.60;;;;;;;9.42;57.24;100043.19;5074690;28;20076;-63
2021/11/25 04:27:37;;;;;;;8.10;3.00;;;;;;;9.41;57.05;100044.31;5073867;28;20132;-63
2021/11/25 04:30:23;;;;;;;6.00;2.47;;;;;;;9.20;57.79;100026.84;5074454;28;20080;-61
2021/11/25 04:35:36;;;;;;;8.50;3.13;;;;;;;8.88;58.49;100029.16;5073877;28;20041;-62
2021/11/25 04:38:13;;;;;;;10.53;3.27;;;;;;;8.74;58.87;100024.16;5071735;28;20491;-61
2021/11/25 04:40:47;;;;;;;10.27;2.90;;;;;;;8.63;59.22;100011.41;5070846;28;20361;-61
2021/11/25 04:43:15;;;;;;;3.93;2.50;;;;;;;8.51;60.04;100014.47;5073713;28;20056;-61
2021/11/25 04:45:44;;;;;;;10.70;3.97;;;;;;;8.23;60.53;99976.91;5084457;28;20459;-62
2021/11/25 04:48:12;;;;;;;6.57;2.27;;;;;;;8.26;61.04;99995.81;5070501;28;20055;-62
2021/11/25 04:50:40;;;;;;;8.73;2.43;;;;;;;8.24;61.23;99992.50;5070774;28;20051;-63
2021/11/25 04:53:10;;;;;;;3.87;1.83;;;;;;;8.14;61.90;100003.63;5058627;28;20064;-64
2021/11/25 04:55:38;;;;;;;7.00;2.28;;;;;;;8.05;62.05;99994.97;5066659;28;20079;-64
2021/11/25 04:58:05;;;;;;;8.87;3.30;;;;;;;7.99;62.28;99990.53;5063084;28;20126;-63
2021/11/25 05:00:32;;;;;;;9.63;2.73;;;;;;;7.91;62.49;99988.31;5073211;28;20127;-63
2021/11/25 05:03:00;;;;;;;7.37;3.43;;;;;;;7.83;62.70;99975.78;5071992;28;20365;-63
2021/11/25 05:05:27;;;;;;;8.10;2.90;;;;;;;7.78;62.96;99984.13;5076269;28;20051;-65
2021/11/25 05:07:54;;;;;;;3.80;1.60;;;;;;;7.73;63.30;99986.91;5066719;28;20045;-66
2021/11/25 05:10:21;;;;;;;6.03;2.03;;;;;;;7.68;63.76;99981.31;5071484;28;20087;-66
2021/11/25 05:12:47;;;;;;;3.33;1.70;;;;;;;7.66;63.95;99978.00;5073860;28;20411;-62
2021/11/25 05:15:16;;;;;;;4.00;2.90;;;;;;;7.64;64.06;99962.69;5071832;28;20080;-59
2021/11/25 05:17:43;;;;;;;8.73;3.50;;;;;;;7.62;63.87;99954.63;5073625;28;20049;-59
2021/11/25 05:20:12;;;;;;;6.27;3.40;;;;;;;7.73;63.94;99956.31;5073465;28;20143;-59
2021/11/25 05:22:40;;;;;;;5.73;2.57;;;;;;;7.78;62.96;99934.09;5082170;28;20123;-58
2021/11/25 05:25:09;;;;;;;9.30;3.33;;;;;;;7.89;63.26;99945.22;5071506;28;20123;-58
2021/11/25 05:27:36;;;;;;;14.80;3.93;;;;;;;7.97;63.10;99947.44;5083849;28;20132;-58
2021/11/25 05:30:05;;;;;;;11.67;3.27;;;;;;;8.00;62.93;99944.94;5074456;28;20508;-57
2021/11/25 05:32:32;;;;;;;8.80;3.20;;;;;;;8.11;62.28;99943.00;5073653;28;20131;-56
2021/11/25 05:34:59;;;;;;;10.53;3.33;;;;;;;8.07;62.09;99923.25;5072784;28;20128;-57
2021/11/25 05:37:26;;;;;;;7.43;3.43;;;;;;;8.03;62.20;99924.94;5073601;28;20127;-58
2021/11/25 05:39:56;;;;;;;9.77;3.33;;;;;;;7.97;62.62;99917.69;5069753;28;20051;-58
2021/11/25 05:42:24;;;;;;;7.17;3.97;;;;;;;7.95;63.19;99930.19;5072865;28;20139;-60
2021/11/25 05:44:51;;;;;;;9.67;4.13;;;;;;;7.83;63.41;99924.94;5072198;28;20475;-58
2021/11/25 05:47:19;;;;;;;10.97;3.57;;;;;;;7.66;63.67;99905.75;5070456;28;20075;-59
2021/11/25 05:49:46;;;;;;;7.83;3.47;;;;;;;7.81;63.72;99911.28;5072900;28;20127;-59
2021/11/25 05:52:13;;;;;;;5.43;2.63;;;;;;;7.71;63.50;99883.50;5072258;28;20052;-59
2021/11/25 05:54:40;;;;;;;4.53;2.53;;;;;;;7.82;63.57;99901.00;5072657;28;20048;-58
2021/11/25 05:57:07;;;;;;;7.20;3.37;;;;;;;7.53;63.41;99850.72;5072064;28;20521;-59
2021/11/25 05:59:34;;;;;;;8.43;4.37;;;;;;;7.89;63.47;99912.69;5070865;28;20465;-55
2021/11/25 06:02:04;;;;;;;9.87;4.67;;;;;;;7.90;63.29;99906.03;5069677;28;20052;-58
2021/11/25 06:04:31;;;;;;;7.70;3.72;;;;;;;7.92;63.15;99900.16;5072262;28;20059;-59
2021/11/25 06:06:58;;;;;;;9.90;4.00;;;;;;;8.00;62.83;99896.81;5072326;28;20041;-60
2021/11/25 06:09:25;;;;;;;12.53;4.80;;;;;;;8.10;62.42;99896.81;5072130;28;20048;-59
2021/11/25 06:11:52;;;;;;;8.87;4.10;;;;;;;8.23;62.17;99907.34;5081397;28;20048;-59
2021/11/25 06:14:19;;;;;;;11.97;4.40;;;;;;;8.37;61.79;99904.81;5071323;28;20055;-62
2021/11/25 06:16:45;;;;;;;11.03;4.30;;;;;;;8.44;61.37;99887.88;5070860;28;20082;-60
2021/11/25 06:19:12;;;;;;;9.83;4.83;;;;;;;8.62;61.39;99892.84;5070708;28;20088;-60
2021/11/25 06:21:39;;;;;;;13.83;5.03;;;;;;;8.76;61.08;99896.66;5071360;28;20076;-60
2021/11/25 06:24:10;;;;;;;9.27;4.73;;;;;;;8.95;60.94;99918.31;5071926;28;20135;-59
2021/11/25 06:26:42;;;;;;;9.43;4.90;;;;;;;8.92;60.94;99893.81;5070045;28;20464;-64
2021/11/25 06:29:09;;;;;;;11.57;5.10;;;;;;;9.11;60.76;99911.53;5071353;28;20506;-62
2021/11/25 06:31:36;;;;;;;9.50;5.33;;;;;;;9.13;60.62;99903.75;5070907;28;20503;-63
2021/11/25 06:34:03;;;;;;;11.00;6.40;;;;;;;9.07;60.53;99888.16;5071471;28;20052;-62
2021/11/25 06:36:30;;;;;;;16.97;6.27;;;;;;;9.10;60.32;99904.31;5069825;28;20044;-62
2021/11/25 06:38:57;;;;;;;8.17;5.37;;;;;;;9.10;60.45;99903.50;5072093;28;20086;-62
2021/11/25 06:41:23;;;;;;;14.00;5.60;;;;;;;9.05;60.38;99898.75;5079022;28;20136;-62
2021/11/25 06:43:50;;;;;;;12.47;5.43;;;;;;;9.00;60.24;99894.06;5070960;28;20044;-64
2021/11/25 06:46:17;;;;;;;15.10;6.23;;;;;;;9.01;60.35;99894.88;5070281;28;20064;-61
2021/11/25 06:48:44;;;;;;;16.53;6.03;;;;;;;8.97;60.35;99896.59;5071025;28;20048;-63
2021/11/25 06:51:11;;;;;;;11.43;5.70;;;;;;;9.05;60.42;99895.16;5071561;28;20048;-62
2021/11/25 06:53:38;;;;;;;10.70;5.57;;;;;;;9.09;60.33;99901.81;5071106;28;20190;-62
2021/11/25 06:56:05;;;;;;;14.27;5.67;;;;;;;9.13;60.35;99900.97;5071897;28;20475;-63
2021/11/25 06:58:32;;;;;;;11.67;5.20;;;;;;;9.05;60.47;99879.25;5069105;28;20127;-61
2021/11/25 07:01:04;;;;;;;13.43;4.97;;;;;;;9.06;60.40;99889.31;5071285;28;20051;-62
2021/11/25 07:03:33;;;;;;;15.67;5.80;;;;;;;9.04;60.61;99882.34;5070409;28;20476;-62
2021/11/25 07:06:01;;;;;;;21.97;6.40;;;;;;;9.01;60.77;99875.38;5071280;28;20087;-63
2021/11/25 07:08:30;;;;;;;13.47;6.07;;;;;;;8.86;60.89;99854.03;5067632;28;20466;-63
2021/11/25 07:10:58;;;;;;;18.43;5.30;;;;;;;8.90;61.37;99863.47;5072257;28;20058;-63
2021/11/25 07:13:27;;;;;;;17.90;5.03;;;;;;;8.91;61.55;99867.09;5071656;28;20056;-63
2021/11/25 07:15:54;;;;;;;12.43;5.23;;;;;;;8.89;61.94;99858.16;5077937;28;20450;-62
2021/11/25 07:18:21;;;;;;;14.07;6.03;;;;;;;8.92;61.99;99858.47;5068964;28;20044;-62
2021/11/25 07:20:48;;;;;;;14.20;6.63;;;;;;;8.96;62.14;99858.72;5071639;28;20128;-62
2021/11/25 07:23:15;;;;;;;11.63;6.27;;;;;;;8.93;62.43;99856.50;5070823;28;20132;-64
2021/11/25 07:25:42;;;;;;;16.67;6.33;;;;;;;8.80;62.78;99827.34;5069965;28;20044;-64
2021/11/25 07:28:09;;;;;;;13.73;5.43;;;;;;;8.91;63.01;99850.38;5069758;28;20265;-63
2021/11/25 07:30:36;;;;;;;13.33;5.13;;;;;;;8.72;63.40;99826.00;5068986;28;20080;-64
2021/11/25 07:33:03;;;;;;;14.33;6.73;;;;;;;8.90;63.70;99837.59;5068211;28;20091;-63
2021/11/25 07:35:30;;;;;;;19.43;8.60;;;;;;;8.86;63.92;99830.94;5071085;28;20075;-63
2021/11/25 07:37:58;;;;;;;16.57;9.97;;;;;;;8.87;64.06;99827.84;5069715;28;20166;-63
2021/11/25 07:40:25;;;;;;;23.87;12.10;;;;;;;8.84;64.45;99814.50;5068814;28;20083;-63
2021/11/25 07:42:53;;;;;;;23.13;10.37;;;;;;;8.83;64.41;99809.22;5064339;28;20127;-63
2021/11/25 07:45:26;;;;;;;15.03;7.07;;;;;;;8.76;64.41;99804.81;5067790;28;20059;-64
2021/11/25 07:47:52;;;;;;;13.50;6.83;;;;;;;8.72;64.69;99806.50;5067423;28;20124;-64
2021/11/25 07:50:21;;;;;;;15.57;6.57;;;;;;;8.74;64.68;99817.34;5066217;28;20476;-63
2021/11/25 07:52:49;;;;;;;13.83;6.67;;;;;;;8.74;64.59;99823.72;5078347;28;20140;-63
2021/11/25 07:55:17;;;;;;;16.33;7.30;;;;;;;8.75;64.64;99825.41;5092325;28;20087;-62
2021/11/25 07:57:44;;;;;;;19.67;7.30;;;;;;;8.77;64.62;99822.34;5074362;28;20076;-62
2021/11/25 08:00:13;;;;;;;16.87;7.53;;;;;;;8.80;64.64;99818.16;5070035;28;20106;-63
2021/11/25 08:02:41;;;;;;;21.27;7.93;;;;;;;8.83;64.85;99821.19;5071960;28;20051;-63
2021/11/25 08:05:10;;;;;;;17.17;7.40;;;;;;;8.82;64.75;99810.31;5071479;28;20045;-63
2021/11/25 08:07:39;;;;;;;16.63;6.50;;;;;;;8.89;64.89;99831.19;5074923;28;20127;-63
2021/11/25 08:10:08;;;;;;;11.27;6.07;;;;;;;8.96;64.97;99839.22;5091956;28;20075;-62
2021/11/25 08:12:35;;;;;;;10.27;4.50;;;;;;;8.87;64.89;99827.03;5075608;28;20045;-63
2021/11/25 08:15:03;;;;;;;16.37;6.33;;;;;;;8.91;65.22;99836.47;5071562;28;20084;-63
2021/11/25 08:17:31;;;;;;;30.47;11.63;;;;;;;8.65;65.43;99800.41;5070978;28;20492;-63
2021/11/25 08:19:57;;;;;;;19.47;7.90;;;;;;;8.92;65.72;99847.31;5082487;28;20120;-63
2021/11/25 08:22:24;;;;;;;12.17;5.87;;;;;;;8.86;65.67;99826.19;5073227;28;20080;-63
2021/11/25 08:24:51;;;;;;;10.93;5.00;;;;;;;8.77;65.96;99839.88;5056668;28;20087;-62
2021/11/25 08:27:18;;;;;;;11.00;4.10;;;;;;;8.80;65.95;99848.78;5071787;28;20070;-62
2021/11/25 08:29:45;;;;;;;11.70;4.70;;;;;;;8.66;65.88;99829.09;5068729;28;20140;-61
2021/11/25 08:32:12;;;;;;;7.23;3.80;;;;;;;8.73;66.16;99835.16;5070529;28;20106;-61
2021/11/25 08:34:40;;;;;;;16.40;5.57;;;;;;;8.72;65.89;99836.28;5069511;28;20041;-60
2021/11/25 08:37:07;;;;;;;6.93;3.87;;;;;;;8.59;66.26;99809.91;5069105;28;20132;-61
2021/11/25 08:39:37;;;;;;;9.10;4.20;;;;;;;8.79;66.26;99831.25;5067708;28;20127;-61
2021/11/25 08:42:05;;;;;;;14.57;3.13;;;;;;;8.71;66.41;99806.78;5073060;28;20071;-62
2021/11/25 08:44:32;;;;;;;6.30;3.03;;;;;;;8.72;66.82;99831.56;5071892;28;20063;-63
2021/11/25 08:47:00;;;;;;;5.40;3.50;;;;;;;8.67;66.76;99823.22;5075297;28;20044;-61
2021/11/25 08:49:28;;;;;;;10.97;4.00;;;;;;;8.64;67.02;99831.31;5074963;28;20045;-60
2021/11/25 08:51:55;;;;;;;11.20;4.30;;;;;;;8.45;67.34;99828.34;5072869;28;20045;-62
2021/11/25 08:54:23;;;;;;;11.90;5.53;;;;;;;8.49;67.30;99832.22;5075382;28;20087;-61
2021/11/25 08:56:52;;;;;;;13.23;6.03;;;;;;;8.44;67.08;99829.44;5074092;28;20082;-61
2021/11/25 08:59:19;;;;;;;13.70;7.00;;;;;;;8.51;67.08;99832.75;5073715;28;20080;-60
2021/11/25 09:01:46;;;;;;;15.77;5.63;;;;;;;8.66;66.80;99827.13;5073582;28;20048;-62
2021/11/25 09:04:14;;;;;;;20.37;8.37;;;;;;;8.87;66.40;99824.22;5072000;28;20052;-63
2021/11/25 09:06:41;;;;;;;18.87;7.27;;;;;;;9.08;66.29;99822.16;5073461;28;20434;-61
2021/11/25 09:09:09;;;;;;;13.07;7.30;;;;;;;9.19;66.05;99818.16;5072294;28;20036;-62
2021/11/25 09:11:36;;;;;;;13.73;5.20;;;;;;;9.10;66.38;99803.22;5073067;28;20079;-61
2021/11/25 09:14:04;;;;;;;13.47;6.50;;;;;;;9.03;66.47;99803.53;5072328;28;20135;-61
2021/11/25 09:16:31;;;;;;;19.40;9.10;;;;;;;8.96;66.48;99808.59;5076235;28;20040;-61
2021/11/25 09:19:00;;;;;;;28.97;11.47;;;;;;;9.09;66.72;99813.50;5073153;28;20131;-62
2021/11/25 09:21:30;;;;;;;18.70;9.27;;;;;;;9.12;66.75;99810.13;5072138;28;20040;-63
2021/11/25 09:23:58;;;;;;;16.75;9.38;;;;;;;9.19;66.34;99809.81;5073849;28;20052;-62
2021/11/25 09:26:26;;;;;;;19.50;8.90;;;;;;;9.39;66.36;99806.03;5057009;28;20467;-62
2021/11/25 09:28:58;;;;;;;24.20;10.23;;;;;;;9.57;66.22;99807.28;5056796;28;20137;-62
2021/11/25 09:31:31;;;;;;;16.63;8.13;;;;;;;9.72;66.33;99813.56;5059230;28;20052;-62
2021/11/25 09:33:59;;;;;;;11.33;6.50;;;;;;;9.70;66.56;99813.00;5073253;28;20115;-62
2021/11/25 09:36:28;;;;;;;10.27;6.27;;;;;;;9.85;66.37;99814.00;5072449;28;20120;-62
2021/11/25 09:38:56;;;;;;;13.63;6.07;;;;;;;10.03;66.16;99821.63;5069708;28;20436;-62
2021/11/25 09:41:23;;;;;;;12.23;7.20;;;;;;;10.03;65.75;99809.63;5073277;28;20519;-62
2021/11/25 09:43:52;;;;;;;12.50;6.93;;;;;;;10.03;65.85;99809.63;5071332;28;20504;-62
2021/11/25 09:46:22;;;;;;;14.80;7.53;;;;;;;10.13;65.83;99815.13;5073310;28;20487;-62
2021/11/25 09:48:50;;;;;;;17.38;7.75;;;;;;;10.31;65.72;99827.50;5072401;28;20036;-62
2021/11/25 09:51:18;;;;;;;12.97;7.57;;;;;;;10.38;65.36;99816.81;5072525;28;20266;-62
2021/11/25 09:53:45;;;;;;;16.93;7.67;;;;;;;10.49;65.53;99832.28;5072424;28;20048;-61
2021/11/25 09:56:11;;;;;;;13.47;7.17;;;;;;;10.46;65.40;99841.28;5071118;28;20076;-62
2021/11/25 09:58:38;;;;;;;14.43;7.73;;;;;;;10.26;65.86;99833.97;5071818;28;20188;-62
2021/11/25 10:01:09;;;;;;;16.90;9.07;;;;;;;10.18;65.68;99845.72;5064210;28;20070;-62
2021/11/25 10:03:38;;;;;;;23.53;8.33;;;;;;;10.08;65.81;99846.66;5073301;28;20048;-62
2021/11/25 10:06:05;;;;;;;25.07;9.47;;;;;;;10.00;65.96;99838.94;5072190;28;20127;-62
2021/11/25 10:08:49;;;;;;;22.53;10.00;;;;;;;9.81;66.03;99844.44;5073359;28;20416;-60
2021/11/25 10:11:19;;;;;;;17.40;8.30;;;;;;;9.61;66.40;99855.78;5072217;28;20041;-60
2021/11/25 10:13:58;;;;;;;13.63;8.82;;;;;;;9.38;66.91;99855.38;5072900;28;20131;-60
2021/11/25 10:16:31;;;;;;;13.02;6.45;;;;;;;9.17;66.98;99851.06;5064854;28;20099;-59
2021/11/25 10:19:12;;;;;;;17.23;9.73;;;;;;;9.11;67.09;99844.69;5072470;28;20095;-59
2021/11/25 10:21:43;;;;;;;18.13;8.63;;;;;;;9.07;67.27;99851.97;5073069;28;20067;-58
2021/11/25 10:24:10;;;;;;;;;;;;;;;9.12;67.21;99851.09;5072942;28;20044;-56
2021/11/25 10:26:37;;;;;;;14.33;7.77;;;;;;;9.00;67.29;99832.78;5072403;28;19967;-58
2021/11/25 10:29:08;;;;;;;19.47;8.97;;;;;;;9.11;67.29;99850.25;5071571;28;20469;-59
2021/11/25 10:31:39;;;;;;;13.67;7.00;;;;;;;9.16;67.36;99852.16;5070225;28;20136;-59
2021/11/25 10:37:05;;;;;;;15.70;6.47;;;;;;;9.32;67.38;99861.28;5072510;28;20131;-58
2021/11/25 10:42:14;;;;;;;12.90;7.50;;;;;;;9.71;67.11;99853.72;5071748;28;20131;-59
2021/11/25 10:44:52;;;;;;;15.47;9.73;;;;;;;9.99;66.84;99848.44;5070578;28;20099;-59
2021/11/25 10:47:23;;;;;;;27.67;17.97;;;;;;;10.24;66.58;99866.88;5063599;28;20049;-59
2021/11/25 10:49:53;;;;;;;35.43;18.73;;;;;;;10.40;66.25;99870.38;5068660;28;20515;-59
2021/11/25 10:52:28;;;;;;;26.37;17.33;;;;;;;10.86;66.21;99865.06;5071410;28;20067;-58
2021/11/25 10:54:59;;;;;;;22.87;14.10;;;;;;;11.40;65.42;99862.91;5071123;28;20378;-58
2021/11/25 10:57:57;;;;;;;17.17;9.50;;;;;;;11.99;65.38;99852.19;5071437;28;20048;-59
2021/11/25 11:00:33;;;;;;;15.60;8.17;;;;;;;12.55;64.84;99862.31;5052685;28;20083;-59
2021/11/25 11:03:07;;;;;;;17.40;7.93;;;;;;;12.76;63.85;99860.75;5070408;28;20055;-59
2021/11/25 11:06:04;;;;;;;17.53;8.47;;;;;;;13.02;63.75;99865.81;5070353;28;22958;-59
2021/11/25 11:08:42;;;;;;;18.93;11.03;;;;;;;13.58;63.36;99863.75;5064780;28;20056;-59
2021/11/25 11:11:10;;;;;;;20.53;10.07;;;;;;;14.58;62.51;99858.59;5071443;28;20470;-59
2021/11/25 11:14:01;;;;;;;11.93;8.83;;;;;;;14.96;61.68;99858.06;5070833;28;20049;-58
2021/11/25 11:16:31;;;;;;;15.10;9.53;;;;;;;14.86;61.44;99838.69;5071258;28;20044;-58
2021/11/25 11:19:03;;;;;;;20.83;9.50;;;;;;;15.71;60.84;99846.75;5078597;28;20076;-59
2021/11/25 11:21:34;;;;;;;15.33;7.87;;;;;;;16.68;59.69;99835.69;5068601;28;20052;-60
2021/11/25 11:24:08;;;;;;;15.48;8.13;;;;;;;17.52;57.63;99847.16;5068612;28;20152;-58
2021/11/25 11:26:40;;;;;;;21.60;8.82;;;;;;;18.23;56.37;99844.19;5070989;28;20075;-59
2021/11/25 11:29:07;;;;;;;13.80;8.60;;;;;;;18.71;55.08;99838.94;5069679;28;20484;-58
2021/11/25 11:31:35;;;;;;;14.15;7.50;;;;;;;18.89;54.36;99843.22;5069836;28;20040;-60
2021/11/25 11:34:05;;;;;;;16.63;9.82;;;;;;;18.52;53.54;99844.34;5071174;28;20105;-59
2021/11/25 11:36:34;;;;;;;16.25;8.70;;;;;;;18.11;53.89;99835.66;5071473;28;20567;-59
2021/11/25 11:39:02;;;;;;;13.32;8.70;;;;;;;17.89;53.61;99839.72;5071239;28;20498;-60
2021/11/25 11:41:31;;;;;;;16.25;7.20;;;;;;;17.65;53.90;99817.81;5060799;28;20072;-58
2021/11/25 11:44:01;;;;;;;17.40;9.90;;;;;;;17.62;53.71;99823.31;5070877;28;20143;-58
2021/11/25 11:46:32;;;;;;;12.27;7.75;;;;;;;17.64;53.55;99815.31;5068625;28;20105;-58